Time;durP1;ratioP1;P1;durP2;ratioP2;P2;SDS_P1;SDS_P2;PMS_P1;PMS_P2;Temp;Humidity;BMP_temperature;BMP_pressure;BME280_temperature;BME280_humidity;BME280_pressure;Samples;Min_cycle;Max_cycle;Signal;HPM_P1;HPM_P2
2023/03/08 00:00:07;;;;;;;5.60;1.20;;;-0.30;99.90;;;;;;5052937;28;20044;-83
2023/03/08 00:02:33;;;;;;;3.15;1.25;;;-0.70;99.90;;;;;;5053947;28;20155;-83
2023/03/08 00:04:58;;;;;;;2.72;1.25;;;-0.30;99.90;;;;;;5053531;28;20548;-84
2023/03/08 00:07:24;;;;;;;5.93;1.27;;;-0.70;99.90;;;;;;5049290;28;20102;-83
2023/03/08 00:09:50;;;;;;;3.95;1.05;;;0.00;99.90;;;;;;5032808;28;20176;-83
2023/03/08 00:12:18;;;;;;;6.00;1.25;;;-0.40;99.90;;;;;;5033509;28;20404;-83
2023/03/08 00:14:44;;;;;;;5.82;1.38;;;0.10;99.90;;;;;;5049310;28;20040;-83
2023/03/08 00:17:11;;;;;;;4.45;1.25;;;-0.60;99.90;;;;;;5033108;28;20041;-83
2023/03/08 00:19:37;;;;;;;2.28;1.00;;;0.50;99.90;;;;;;5033596;28;20052;-84
2023/03/08 00:22:03;;;;;;;4.95;1.20;;;-0.40;99.90;;;;;;5032386;28;20048;-84
2023/03/08 00:24:30;;;;;;;3.45;1.13;;;-0.60;99.90;;;;;;5032720;28;20054;-84
2023/03/08 00:26:56;;;;;;;4.60;1.30;;;-0.50;99.90;;;;;;5033349;28;20044;-84
2023/03/08 00:29:22;;;;;;;2.75;1.20;;;-0.40;99.90;;;;;;5049220;28;20064;-83
2023/03/08 00:31:47;;;;;;;4.20;1.17;;;-0.60;99.90;;;;;;5033133;28;20500;-83
2023/03/08 00:34:14;;;;;;;3.75;1.20;;;-0.20;99.90;;;;;;5048292;28;20053;-83
2023/03/08 00:36:39;;;;;;;6.50;1.17;;;-0.70;99.90;;;;;;5049424;28;20041;-83
2023/03/08 00:39:05;;;;;;;4.72;1.20;;;0.30;99.90;;;;;;5048378;28;20047;-83
2023/03/08 00:41:32;;;;;;;8.35;1.50;;;0.30;99.90;;;;;;5047778;28;20060;-83
2023/03/08 00:43:57;;;;;;;5.70;1.17;;;-0.20;99.90;;;;;;5032656;28;20896;-83
2023/03/08 00:46:24;;;;;;;3.20;1.35;;;-0.10;99.90;;;;;;5032183;28;20510;-83
2023/03/08 00:48:50;;;;;;;4.53;1.10;;;-0.10;99.90;;;;;;5048604;28;20045;-83
2023/03/08 00:51:18;;;;;;;3.85;1.20;;;-0.80;99.90;;;;;;5032334;28;20546;-83
2023/03/08 00:53:44;;;;;;;7.35;1.65;;;-0.20;99.90;;;;;;5031561;28;20477;-82
2023/03/08 00:56:10;;;;;;;4.63;1.27;;;-1.10;99.90;;;;;;5032008;28;20049;-83
2023/03/08 00:58:38;;;;;;;2.33;1.00;;;-1.10;99.90;;;;;;5032160;28;20033;-83
2023/03/08 01:01:05;;;;;;;6.13;1.50;;;-1.20;99.90;;;;;;5032151;28;20049;-83
2023/03/08 01:03:31;;;;;;;8.32;1.42;;;-0.40;99.90;;;;;;5047923;28;20037;-83
2023/03/08 01:05:58;;;;;;;4.78;1.33;;;-1.20;99.90;;;;;;5048783;28;20550;-83
2023/03/08 01:08:25;;;;;;;6.03;1.52;;;0.00;99.90;;;;;;5031411;28;20053;-83
2023/03/08 01:10:55;;;;;;;4.03;1.42;;;-0.20;99.90;;;;;;5030906;28;20049;-83
2023/03/08 01:13:21;;;;;;;3.60;1.40;;;-0.60;99.90;;;;;;5031587;28;20045;-83
2023/03/08 01:15:47;;;;;;;3.78;1.13;;;-1.30;99.90;;;;;;5065373;28;20051;-83
2023/03/08 01:18:13;;;;;;;5.72;1.52;;;-1.50;99.90;;;;;;5064637;28;20033;-83
2023/03/08 01:20:38;;;;;;;5.13;1.50;;;-0.60;99.90;;;;;;5064992;28;20041;-83
2023/03/08 01:23:04;;;;;;;6.65;1.60;;;-0.70;99.90;;;;;;5065183;28;20041;-83
2023/03/08 01:25:30;;;;;;;6.47;1.70;;;-1.40;99.90;;;;;;5063528;28;20055;-83
2023/03/08 01:27:55;;;;;;;3.63;1.30;;;-1.00;99.90;;;;;;5048446;28;20041;-83
2023/03/08 01:30:21;;;;;;;4.57;1.50;;;-1.40;99.90;;;;;;5064419;28;20056;-82
2023/03/08 01:32:47;;;;;;;4.53;2.05;;;-0.80;99.90;;;;;;5065021;28;20043;-82
2023/03/08 01:35:13;;;;;;;3.95;1.10;;;-1.70;99.90;;;;;;5031371;28;20413;-82
2023/03/08 01:37:38;;;;;;;5.32;1.33;;;-1.00;99.90;;;;;;5047175;28;20040;-82
2023/03/08 01:40:05;;;;;;;6.45;1.50;;;-0.90;99.90;;;;;;5064274;28;20087;-82
2023/03/08 01:42:31;;;;;;;4.30;1.73;;;-1.60;99.90;;;;;;5064993;28;20048;-83
2023/03/08 01:44:59;;;;;;;5.93;1.40;;;-0.90;99.90;;;;;;5030478;28;20037;-82
2023/03/08 01:47:28;;;;;;;4.95;1.55;;;-0.60;99.90;;;;;;5031549;28;20136;-82
2023/03/08 01:49:58;;;;;;;4.38;1.30;;;-1.00;99.90;;;;;;5047607;28;20044;-83
2023/03/08 01:52:30;;;;;;;2.97;1.20;;;-0.90;99.90;;;;;;5030593;28;20095;-82
2023/03/08 01:54:58;;;;;;;3.00;1.30;;;-1.80;99.90;;;;;;5046775;28;20114;-82
2023/03/08 01:57:32;;;;;;;4.50;1.30;;;-1.20;99.90;;;;;;5031656;28;20149;-83
2023/03/08 02:00:06;;;;;;;4.28;1.40;;;-1.90;99.90;;;;;;5030702;28;20051;-83
2023/03/08 02:02:40;;;;;;;6.57;1.20;;;-1.90;99.90;;;;;;5030690;28;20037;-82
2023/03/08 02:05:07;;;;;;;7.68;1.15;;;-1.90;99.90;;;;;;5030819;28;20059;-83
2023/03/08 02:07:32;;;;;;;4.63;1.27;;;-2.00;99.90;;;;;;5063567;28;20093;-82
2023/03/08 02:09:58;;;;;;;7.22;1.13;;;-1.60;99.90;;;;;;5030350;28;20523;-83
2023/03/08 02:12:25;;;;;;;3.78;1.10;;;-2.00;99.90;;;;;;5030615;28;20041;-82
2023/03/08 02:14:51;;;;;;;6.60;1.20;;;-1.80;99.90;;;;;;5030109;28;20072;-83
2023/03/08 02:17:17;;;;;;;7.10;1.08;;;-1.10;99.90;;;;;;5030426;28;20044;-83
2023/03/08 02:19:56;;;;;;;10.73;1.83;;;-1.10;99.90;;;;;;5054557;28;20146;-83
2023/03/08 02:22:22;;;;;;;8.48;1.63;;;-2.00;99.90;;;;;;5064758;28;20053;-82
2023/03/08 02:24:48;;;;;;;6.80;1.38;;;-2.00;99.90;;;;;;5050636;28;20055;-82
2023/03/08 02:27:20;;;;;;;6.25;1.20;;;-2.00;99.90;;;;;;5065995;28;20044;-82
2023/03/08 02:29:46;;;;;;;4.97;1.23;;;-1.20;99.90;;;;;;5050646;28;20072;-82
2023/03/08 02:32:12;;;;;;;3.63;1.08;;;-2.10;99.90;;;;;;5066555;28;20040;-82
2023/03/08 02:34:38;;;;;;;7.65;1.27;;;-2.00;99.90;;;;;;5066672;28;20185;-82
2023/03/08 02:37:03;;;;;;;9.13;1.08;;;-1.90;99.90;;;;;;5066352;28;20527;-82
2023/03/08 02:39:29;;;;;;;7.32;1.02;;;-1.90;99.90;;;;;;5050618;28;20041;-82
2023/03/08 02:41:55;;;;;;;3.90;0.95;;;-1.80;99.90;;;;;;5065922;28;20131;-82
2023/03/08 02:44:20;;;;;;;4.50;0.98;;;-0.90;99.90;;;;;;5066660;28;20136;-82
2023/03/08 02:46:46;;;;;;;3.83;1.23;;;-1.00;99.90;;;;;;5066950;28;20036;-82
2023/03/08 02:49:12;;;;;;;4.10;1.08;;;-0.60;99.90;;;;;;5049718;28;20729;-82
2023/03/08 02:51:38;;;;;;;4.38;0.90;;;-0.60;99.90;;;;;;5065988;28;20444;-83
2023/03/08 02:54:03;;;;;;;5.63;1.02;;;-1.60;99.90;;;;;;5067004;28;20498;-82
2023/03/08 02:56:29;;;;;;;5.40;1.00;;;-1.40;99.90;;;;;;5049153;28;20517;-82
2023/03/08 02:58:55;;;;;;;3.50;0.88;;;-2.00;99.90;;;;;;5066887;28;20158;-82
2023/03/08 03:01:21;;;;;;;6.93;1.35;;;-2.00;99.90;;;;;;5066550;28;20049;-82
2023/03/08 03:03:46;;;;;;;5.95;1.00;;;-2.00;99.90;;;;;;5065665;28;20476;-82
2023/03/08 03:06:14;;;;;;;4.43;1.05;;;-1.70;99.90;;;;;;5064757;28;20201;-82
2023/03/08 03:08:40;;;;;;;4.07;1.02;;;-2.10;99.90;;;;;;5066135;28;20044;-83
2023/03/08 03:11:18;;;;;;;5.60;0.93;;;-1.40;99.90;;;;;;5065750;28;20097;-82
2023/03/08 03:13:44;;;;;;;3.85;1.15;;;-2.10;99.90;;;;;;5066661;28;20060;-83
2023/03/08 03:16:14;;;;;;;8.43;1.63;;;-2.10;99.90;;;;;;5049111;28;20591;-82
2023/03/08 03:18:39;;;;;;;4.75;1.25;;;-1.00;99.90;;;;;;5046755;28;20102;-81
2023/03/08 03:21:09;;;;;;;4.13;0.80;;;-1.50;99.90;;;;;;5045807;28;20538;-81
2023/03/08 03:23:35;;;;;;;3.45;1.10;;;-1.20;99.90;;;;;;5045249;28;20049;-81
2023/03/08 03:26:05;;;;;;;4.38;1.05;;;-1.50;99.90;;;;;;5046150;28;20113;-81
2023/03/08 03:28:31;;;;;;;9.90;1.20;;;-1.90;99.90;;;;;;5029907;28;20068;-81
2023/03/08 03:30:56;;;;;;;6.22;1.17;;;-1.40;99.90;;;;;;5029495;28;20492;-81
2023/03/08 03:33:22;;;;;;;5.65;1.10;;;-1.40;99.90;;;;;;5045866;28;20048;-82
2023/03/08 03:35:48;;;;;;;4.15;1.20;;;-1.80;99.90;;;;;;5045435;28;20076;-81
2023/03/08 03:38:13;;;;;;;4.28;1.00;;;-1.80;99.90;;;;;;5045696;28;20052;-81
2023/03/08 03:40:39;;;;;;;6.25;1.05;;;-1.10;99.90;;;;;;5045636;28;20049;-82
2023/03/08 03:43:05;;;;;;;7.20;1.20;;;-1.70;99.90;;;;;;5029952;28;20110;-82
2023/03/08 03:45:30;;;;;;;4.05;0.90;;;-1.80;99.90;;;;;;5028718;28;20408;-81
2023/03/08 03:47:56;;;;;;;4.45;0.98;;;-1.80;99.90;;;;;;5046304;28;20068;-81
2023/03/08 03:50:22;;;;;;;3.95;1.05;;;-1.80;99.90;;;;;;5029352;28;20056;-81
2023/03/08 03:52:47;;;;;;;9.02;1.48;;;-1.00;99.90;;;;;;5045098;28;20374;-82
2023/03/08 03:55:13;;;;;;;4.20;1.23;;;-1.90;99.90;;;;;;5045845;28;20045;-81
2023/03/08 03:57:39;;;;;;;4.63;1.02;;;-1.90;99.90;;;;;;5046202;28;20053;-81
2023/03/08 04:00:07;;;;;;;5.10;1.10;;;-1.90;99.90;;;;;;5044979;28;20566;-81
2023/03/08 04:02:33;;;;;;;4.53;1.10;;;-2.00;99.90;;;;;;5046194;28;20045;-81
2023/03/08 04:04:58;;;;;;;4.72;1.17;;;-2.00;99.90;;;;;;5028786;28;20041;-81
2023/03/08 04:07:24;;;;;;;7.00;1.40;;;-0.80;99.90;;;;;;5045259;28;20057;-81
2023/03/08 04:09:50;;;;;;;9.75;1.33;;;-1.20;99.90;;;;;;5045443;28;20099;-81
2023/03/08 04:12:15;;;;;;;5.70;1.40;;;-1.30;99.90;;;;;;5045364;28;20044;-81
2023/03/08 04:14:41;;;;;;;4.63;0.70;;;-1.40;99.90;;;;;;5045884;28;20040;-81
2023/03/08 04:17:07;;;;;;;6.80;1.10;;;-1.40;99.90;;;;;;5047623;28;20040;-81
2023/03/08 04:19:33;;;;;;;5.20;1.20;;;-2.10;99.90;;;;;;5048954;28;20040;-81
2023/03/08 04:21:59;;;;;;;5.18;0.95;;;-0.70;99.90;;;;;;5048639;28;20057;-80
2023/03/08 04:24:24;;;;;;;5.47;1.15;;;-0.90;99.90;;;;;;5050154;28;20063;-81
2023/03/08 04:26:50;;;;;;;5.50;0.85;;;-2.20;99.90;;;;;;5032066;28;20052;-81
2023/03/08 04:29:16;;;;;;;5.70;1.25;;;-2.30;99.90;;;;;;5032537;28;20041;-81
2023/03/08 04:31:41;;;;;;;5.18;0.82;;;-1.30;99.90;;;;;;5049347;28;20052;-81
2023/03/08 04:34:07;;;;;;;3.22;0.90;;;-2.40;99.90;;;;;;5048918;28;20075;-81
2023/03/08 04:36:33;;;;;;;3.80;1.17;;;-2.40;99.90;;;;;;5048238;28;20500;-81
2023/03/08 04:38:58;;;;;;;6.75;1.42;;;-1.90;99.90;;;;;;5049769;28;20033;-81
2023/03/08 04:41:25;;;;;;;5.28;1.15;;;-2.40;99.90;;;;;;5048045;28;20037;-81
2023/03/08 04:43:55;;;;;;;5.93;1.35;;;-2.50;99.90;;;;;;5049315;28;20105;-81
2023/03/08 04:46:25;;;;;;;4.80;1.48;;;-2.40;99.90;;;;;;5048621;28;20295;-80
2023/03/08 04:48:54;;;;;;;5.63;1.25;;;-1.70;99.90;;;;;;5048717;28;20105;-81
2023/03/08 04:51:22;;;;;;;4.63;1.52;;;-2.30;99.90;;;;;;5048092;28;20049;-81
2023/03/08 04:53:48;;;;;;;6.45;1.88;;;-2.30;99.90;;;;;;5049383;28;20413;-81
2023/03/08 04:56:15;;;;;;;10.65;2.33;;;-1.60;99.90;;;;;;5047721;28;20049;-81
2023/03/08 04:58:41;;;;;;;8.57;2.28;;;-1.40;99.90;;;;;;5049083;28;20045;-81
2023/03/08 05:01:18;;;;;;;7.32;2.35;;;-1.30;99.90;;;;;;5048847;28;20049;-81
2023/03/08 05:03:45;;;;;;;7.47;2.78;;;-2.10;99.90;;;;;;5048315;28;20044;-81
2023/03/08 05:06:13;;;;;;;8.23;2.92;;;-1.50;99.90;;;;;;5047667;28;20049;-81
2023/03/08 05:08:38;;;;;;;4.90;2.63;;;-2.20;99.90;;;;;;5048056;28;20045;-81
2023/03/08 05:11:05;;;;;;;5.35;2.17;;;-1.60;99.90;;;;;;5048059;28;20044;-80
2023/03/08 05:13:34;;;;;;;8.13;2.47;;;-1.60;99.90;;;;;;5049156;28;20041;-81
2023/03/08 05:16:00;;;;;;;9.68;2.03;;;-2.30;99.90;;;;;;5042570;28;20053;-81
2023/03/08 05:18:26;;;;;;;4.88;1.80;;;-2.30;99.90;;;;;;5049346;28;20067;-81
2023/03/08 05:20:54;;;;;;;8.13;2.10;;;-2.10;99.90;;;;;;5031124;28;20052;-81
2023/03/08 05:23:20;;;;;;;6.85;2.40;;;-2.20;99.90;;;;;;5060020;28;20140;-81
2023/03/08 05:25:46;;;;;;;6.82;2.60;;;-0.90;99.90;;;;;;5068330;28;20037;-81
2023/03/08 05:28:14;;;;;;;10.38;1.63;;;-1.00;99.90;;;;;;5067479;28;20044;-81
2023/03/08 05:30:41;;;;;;;7.85;1.80;;;-2.10;99.90;;;;;;5048824;28;20382;-81
2023/03/08 05:33:06;;;;;;;6.07;1.52;;;-1.70;99.90;;;;;;5048141;28;20041;-80
2023/03/08 05:35:32;;;;;;;9.90;1.88;;;-1.70;99.90;;;;;;5048532;28;20051;-80
2023/03/08 05:37:58;;;;;;;4.78;1.23;;;-2.10;99.90;;;;;;5047897;28;20053;-81
2023/03/08 05:40:23;;;;;;;3.45;1.30;;;-1.40;99.90;;;;;;5047605;28;20045;-81
2023/03/08 05:42:49;;;;;;;3.35;1.40;;;-0.90;99.90;;;;;;5048185;28;20408;-80
2023/03/08 05:45:15;;;;;;;5.40;1.20;;;-2.20;99.90;;;;;;5046942;28;20077;-80
2023/03/08 05:47:40;;;;;;;3.70;1.10;;;-2.20;99.90;;;;;;5048001;28;20060;-81
2023/03/08 05:50:07;;;;;;;3.78;1.17;;;-2.20;99.90;;;;;;5030647;28;20048;-80
2023/03/08 05:52:33;;;;;;;3.38;1.10;;;-2.10;99.90;;;;;;5046718;28;20128;-80
2023/03/08 05:54:58;;;;;;;5.75;1.40;;;-1.50;99.90;;;;;;5031668;28;20132;-81
2023/03/08 05:57:24;;;;;;;3.95;1.20;;;-1.30;99.90;;;;;;5031159;28;20393;-81
2023/03/08 05:59:50;;;;;;;7.88;2.38;;;-0.80;99.90;;;;;;5029948;28;20088;-81
2023/03/08 06:02:15;;;;;;;9.07;1.80;;;-1.50;99.90;;;;;;5047682;28;20048;-81
2023/03/08 06:04:41;;;;;;;5.88;1.45;;;-2.10;99.90;;;;;;5046754;28;20053;-81
2023/03/08 06:07:07;;;;;;;8.70;1.70;;;-2.20;99.90;;;;;;5046666;28;20535;-80
2023/03/08 06:09:32;;;;;;;6.35;1.65;;;-1.20;99.90;;;;;;5047948;28;20481;-80
2023/03/08 06:11:58;;;;;;;6.40;1.50;;;-2.10;99.90;;;;;;5046536;28;20052;-80
2023/03/08 06:14:24;;;;;;;4.82;1.52;;;-0.90;99.90;;;;;;5048948;28;20080;-81
2023/03/08 06:16:50;;;;;;;7.05;1.10;;;-2.20;99.90;;;;;;5067170;28;20044;-81
2023/03/08 06:19:15;;;;;;;5.00;1.42;;;-1.20;99.90;;;;;;5066549;28;20499;-81
2023/03/08 06:21:41;;;;;;;12.02;2.00;;;-2.10;99.90;;;;;;5066355;28;20059;-81
2023/03/08 06:24:08;;;;;;;7.20;1.95;;;-1.20;99.90;;;;;;5050859;28;20053;-81
2023/03/08 06:26:33;;;;;;;5.50;1.40;;;-1.10;99.90;;;;;;5066522;28;20048;-81
2023/03/08 06:28:59;;;;;;;5.43;1.58;;;-2.20;99.90;;;;;;5050465;28;20102;-81
2023/03/08 06:31:25;;;;;;;4.10;1.15;;;-1.50;99.90;;;;;;5066878;28;20110;-81
2023/03/08 06:33:50;;;;;;;4.13;1.48;;;-1.10;99.90;;;;;;5066627;28;20053;-80
2023/03/08 06:36:18;;;;;;;6.53;1.30;;;-2.20;99.90;;;;;;5066704;28;20056;-83
2023/03/08 06:38:44;;;;;;;4.15;1.27;;;-2.20;99.90;;;;;;5051460;28;20032;-83
2023/03/08 06:41:12;;;;;;;8.02;1.50;;;-1.60;99.90;;;;;;5065782;28;20080;-83
2023/03/08 06:43:37;;;;;;;6.13;1.42;;;-1.10;99.90;;;;;;5067326;28;20047;-83
2023/03/08 06:46:06;;;;;;;3.60;1.05;;;-1.50;99.90;;;;;;5049693;28;20052;-83
2023/03/08 06:48:34;;;;;;;5.75;1.13;;;-1.70;99.90;;;;;;5042561;28;20037;-83
2023/03/08 06:50:59;;;;;;;6.78;1.10;;;-1.30;99.90;;;;;;5054582;28;20064;-83
2023/03/08 06:53:25;;;;;;;7.07;1.63;;;-1.40;99.90;;;;;;5040731;28;20110;-83
2023/03/08 06:55:51;;;;;;;6.03;1.38;;;-1.30;99.90;;;;;;5063926;28;20468;-83
2023/03/08 06:58:17;;;;;;;4.70;1.75;;;-1.30;99.90;;;;;;5045912;28;20055;-82
2023/03/08 07:00:43;;;;;;;4.28;1.42;;;-2.00;99.90;;;;;;5065578;28;20078;-82
2023/03/08 07:03:10;;;;;;;3.50;1.30;;;-1.20;99.90;;;;;;5048860;28;20040;-83
2023/03/08 07:05:36;;;;;;;6.07;1.48;;;-1.80;99.90;;;;;;5042316;28;20442;-83
2023/03/08 07:08:02;;;;;;;8.60;2.17;;;-1.00;99.90;;;;;;5068464;28;20052;-83
2023/03/08 07:10:28;;;;;;;7.82;1.90;;;-1.70;99.90;;;;;;5066773;28;20031;-83
2023/03/08 07:12:54;;;;;;;6.78;2.33;;;-0.50;99.90;;;;;;5069704;28;20518;-83
2023/03/08 07:15:21;;;;;;;11.55;2.63;;;-0.80;99.90;;;;;;5067978;28;20052;-83
2023/03/08 07:17:48;;;;;;;6.32;2.33;;;-1.40;99.90;;;;;;5052850;28;20036;-84
2023/03/08 07:20:15;;;;;;;11.07;2.50;;;-1.50;99.90;;;;;;5068752;28;20104;-83
2023/03/08 07:22:43;;;;;;;11.95;3.05;;;-0.50;99.90;;;;;;5068851;28;20458;-83
2023/03/08 07:25:11;;;;;;;9.43;3.15;;;-1.40;99.90;;;;;;5066486;28;20048;-83
2023/03/08 07:27:36;;;;;;;12.65;3.33;;;-0.30;99.90;;;;;;5069171;28;20513;-83
2023/03/08 07:30:02;;;;;;;7.15;2.97;;;-0.50;99.90;;;;;;5068630;28;20040;-83
2023/03/08 07:32:28;;;;;;;9.25;3.40;;;-1.20;99.90;;;;;;5065226;28;20036;-83
2023/03/08 07:34:55;;;;;;;8.77;3.88;;;-1.20;99.90;;;;;;5065619;28;20047;-83
2023/03/08 07:37:20;;;;;;;8.90;4.10;;;-0.30;99.90;;;;;;5067083;28;20044;-83
2023/03/08 07:39:46;;;;;;;7.38;4.10;;;-0.30;99.90;;;;;;5065555;28;20091;-83
2023/03/08 07:42:12;;;;;;;9.25;4.88;;;-0.70;99.90;;;;;;5068299;28;20462;-83
2023/03/08 07:44:38;;;;;;;12.55;5.45;;;-0.30;99.90;;;;;;5067169;28;20036;-83
2023/03/08 07:47:05;;;;;;;7.95;4.53;;;-0.80;99.90;;;;;;5068324;28;20032;-83
2023/03/08 07:49:31;;;;;;;8.75;5.38;;;-0.80;99.90;;;;;;5069340;28;20078;-84
2023/03/08 07:51:57;;;;;;;9.75;5.47;;;-0.70;99.90;;;;;;5053795;28;20126;-83
2023/03/08 07:54:23;;;;;;;13.65;6.05;;;0.10;99.90;;;;;;5072389;28;20475;-83
2023/03/08 07:56:51;;;;;;;9.25;5.80;;;-0.40;99.90;;;;;;5071425;28;20040;-82
2023/03/08 07:59:16;;;;;;;10.60;6.72;;;-0.10;99.90;;;;;;5071281;28;20082;-83
2023/03/08 08:01:42;;;;;;;10.02;6.97;;;0.50;99.90;;;;;;5071631;28;20036;-82
2023/03/08 08:04:08;;;;;;;10.50;6.80;;;0.50;99.90;;;;;;5072793;28;20443;-83
2023/03/08 08:06:35;;;;;;;12.88;7.75;;;0.50;99.90;;;;;;5071293;28;20044;-83
2023/03/08 08:09:01;;;;;;;9.70;6.25;;;-0.20;99.90;;;;;;5055763;28;20039;-82
2023/03/08 08:11:27;;;;;;;12.88;8.57;;;0.90;99.90;;;;;;5072021;28;20402;-84
2023/03/08 08:13:53;;;;;;;9.60;5.95;;;0.40;99.90;;;;;;5071366;28;20043;-82
2023/03/08 08:16:19;;;;;;;13.43;5.72;;;0.10;99.90;;;;;;5054781;28;20048;-83
2023/03/08 08:18:44;;;;;;;13.15;6.32;;;1.20;99.90;;;;;;5052673;28;20094;-83
2023/03/08 08:21:13;;;;;;;10.85;5.55;;;0.40;99.90;;;;;;5035200;28;20130;-81
2023/03/08 08:23:40;;;;;;;9.38;5.90;;;0.90;99.90;;;;;;5053241;28;20037;-80
2023/03/08 08:26:11;;;;;;;9.95;5.45;;;1.50;99.90;;;;;;5035259;28;20048;-81
2023/03/08 08:28:38;;;;;;;16.48;5.95;;;0.30;99.90;;;;;;5053169;28;20044;-81
2023/03/08 08:31:07;;;;;;;10.65;5.72;;;0.30;99.90;;;;;;5035644;28;20483;-81
2023/03/08 08:33:34;;;;;;;10.68;6.50;;;1.20;99.90;;;;;;5052149;28;20051;-83
2023/03/08 08:36:04;;;;;;;12.10;6.13;;;0.40;99.90;;;;;;5035020;28;20398;-82
2023/03/08 08:38:29;;;;;;;12.02;6.05;;;0.40;99.90;;;;;;5053038;28;20484;-81
2023/03/08 08:41:00;;;;;;;10.25;6.72;;;0.70;99.90;;;;;;5051295;28;20041;-82
2023/03/08 08:43:26;;;;;;;14.40;7.05;;;1.10;99.90;;;;;;5036326;28;20052;-82
2023/03/08 08:45:55;;;;;;;10.88;6.35;;;1.30;99.90;;;;;;5051966;28;20052;-82
2023/03/08 08:48:22;;;;;;;8.35;6.43;;;1.90;99.90;;;;;;5051831;28;20059;-83
2023/03/08 08:50:48;;;;;;;8.75;6.38;;;0.80;99.90;;;;;;5034976;28;20040;-83
2023/03/08 08:53:13;;;;;;;17.05;6.10;;;0.90;99.90;;;;;;5052556;28;20519;-83
2023/03/08 08:55:39;;;;;;;8.30;6.05;;;0.90;99.90;;;;;;5034992;28;20045;-83
2023/03/08 08:58:05;;;;;;;11.80;6.60;;;1.70;99.90;;;;;;5035948;28;20044;-84
2023/03/08 09:00:32;;;;;;;10.75;6.53;;;1.30;99.90;;;;;;5035567;28;20573;-84
2023/03/08 09:02:59;;;;;;;10.23;6.00;;;1.60;99.90;;;;;;5034597;28;20515;-83
2023/03/08 09:05:25;;;;;;;8.80;5.85;;;1.20;99.90;;;;;;5051653;28;20082;-84
2023/03/08 09:07:57;;;;;;;9.18;6.03;;;1.90;99.90;;;;;;5035120;28;20235;-85
2023/03/08 09:10:24;;;;;;;8.48;6.13;;;1.40;99.90;;;;;;5035898;28;20072;-84
2023/03/08 09:12:50;;;;;;;10.88;5.97;;;1.50;99.90;;;;;;5052269;28;20045;-84
2023/03/08 09:15:16;;;;;;;10.25;6.40;;;2.10;99.90;;;;;;5051584;28;20033;-84
2023/03/08 09:17:41;;;;;;;10.63;6.75;;;1.60;99.90;;;;;;5052206;28;20060;-84
2023/03/08 09:20:08;;;;;;;13.60;7.10;;;2.00;99.90;;;;;;5050897;28;20347;-84
2023/03/08 09:22:37;;;;;;;12.88;6.90;;;1.70;99.90;;;;;;5051539;28;20045;-83
2023/03/08 09:25:04;;;;;;;11.20;6.32;;;1.80;99.90;;;;;;5035607;28;20127;-83
2023/03/08 09:27:30;;;;;;;14.02;6.28;;;1.80;99.90;;;;;;5052381;28;20048;-83
2023/03/08 09:29:56;;;;;;;8.93;6.72;;;2.70;99.90;;;;;;5050599;28;20178;-84
2023/03/08 09:32:22;;;;;;;13.27;6.80;;;1.90;99.90;;;;;;5035481;28;20102;-84
2023/03/08 09:34:49;;;;;;;8.88;5.53;;;3.00;99.90;;;;;;5052139;28;20549;-84
2023/03/08 09:37:14;;;;;;;9.57;5.70;;;2.00;99.90;;;;;;5033777;28;20131;-84
2023/03/08 09:39:40;;;;;;;9.35;5.68;;;2.30;99.90;;;;;;5035707;28;20144;-84
2023/03/08 09:42:19;;;;;;;25.08;16.60;;;2.10;99.90;;;;;;5051418;28;20106;-83
2023/03/08 09:45:07;;;;;;;10.25;8.15;;;2.80;99.90;;;;;;5034861;28;20032;-85
2023/03/08 09:47:38;;;;;;;15.85;12.25;;;2.30;99.90;;;;;;5034913;28;20045;-83
2023/03/08 09:50:10;;;;;;;9.60;5.82;;;2.40;99.90;;;;;;5033962;28;20467;-84
2023/03/08 09:52:42;;;;;;;9.43;6.10;;;2.70;99.90;;;;;;5035077;28;20045;-84
2023/03/08 09:55:27;;;;;;;11.95;4.78;;;3.30;99.90;;;;;;5051445;28;20056;-83
2023/03/08 09:57:55;;;;;;;8.20;4.47;;;2.60;99.90;;;;;;5034209;28;20052;-83
2023/03/08 10:00:31;;;;;;;8.15;4.45;;;2.70;99.90;;;;;;5035016;28;20064;-83
2023/03/08 10:03:25;;;;;;;7.35;3.63;;;3.20;99.90;;;;;;5052330;28;20048;-83
2023/03/08 10:06:04;;;;;;;10.30;3.22;;;2.90;99.90;;;;;;5033451;28;20494;-83
2023/03/08 10:08:44;;;;;;;10.18;4.97;;;2.90;99.90;;;;;;5051773;28;20076;-83
2023/03/08 10:11:22;;;;;;;8.82;4.15;;;3.10;99.90;;;;;;5034256;28;20052;-83
2023/03/08 10:13:51;;;;;;;10.57;4.78;;;3.20;99.90;;;;;;5051038;28;20401;-83
2023/03/08 10:16:24;;;;;;;7.20;2.95;;;3.40;99.90;;;;;;5064526;28;20044;-83
2023/03/08 10:19:02;;;;;;;7.93;2.30;;;3.30;99.90;;;;;;5034126;28;20076;-83
2023/03/08 10:21:32;;;;;;;4.07;2.03;;;3.30;99.90;;;;;;5050548;28;20048;-82
2023/03/08 10:24:10;;;;;;;4.07;2.30;;;3.40;99.90;;;;;;5034594;28;20382;-83
2023/03/08 10:26:35;;;;;;;7.15;2.33;;;4.10;99.90;;;;;;5033870;28;20086;-83
2023/03/08 10:29:01;;;;;;;5.40;3.20;;;3.50;99.90;;;;;;5051030;28;20492;-84
2023/03/08 10:31:29;;;;;;;6.07;2.50;;;3.70;99.90;;;;;;5034881;28;20552;-84
2023/03/08 10:34:02;;;;;;;12.10;5.85;;;3.90;99.90;;;;;;5034147;28;20044;-85
2023/03/08 10:36:28;;;;;;;7.68;2.85;;;3.70;99.90;;;;;;5034256;28;20427;-84
2023/03/08 10:39:04;;;;;;;15.65;7.85;;;3.80;99.90;;;;;;5034277;28;20055;-84
2023/03/08 10:41:35;;;;;;;9.45;3.08;;;3.90;99.90;;;;;;5034327;28;20060;-84
2023/03/08 10:44:01;;;;;;;12.05;4.15;;;3.90;99.90;;;;;;5050866;28;20044;-83
2023/03/08 10:46:31;;;;;;;6.60;3.38;;;4.50;99.90;;;;;;5049958;28;20036;-83
2023/03/08 10:49:13;;;;;;;6.75;3.60;;;3.90;99.90;;;;;;5050956;28;20446;-83
2023/03/08 10:51:39;;;;;;;8.55;3.25;;;3.90;99.90;;;;;;5049648;28;20052;-83
2023/03/08 10:54:06;;;;;;;6.75;3.40;;;4.00;99.90;;;;;;5049847;28;20043;-83
2023/03/08 10:56:39;;;;;;;9.45;2.90;;;4.00;99.90;;;;;;5050522;28;20083;-83
2023/03/08 10:59:18;;;;;;;6.70;4.00;;;4.10;99.90;;;;;;5033100;28;20048;-84
2023/03/08 11:01:50;;;;;;;22.45;3.75;;;4.40;99.90;;;;;;5033297;28;20089;-83
2023/03/08 11:04:18;;;;;;;8.60;2.70;;;4.20;99.90;;;;;;5033379;28;20492;-84
2023/03/08 11:06:45;;;;;;;7.03;2.25;;;4.20;99.90;;;;;;5048760;28;20114;-84
2023/03/08 11:09:22;;;;;;;7.88;2.55;;;4.20;99.90;;;;;;5033122;28;20068;-84
2023/03/08 11:11:48;;;;;;;6.40;2.35;;;4.20;99.90;;;;;;5033139;28;20440;-83
2023/03/08 11:14:15;;;;;;;7.00;2.13;;;4.40;99.90;;;;;;5049147;28;20044;-83
2023/03/08 11:16:50;;;;;;;5.72;2.10;;;4.90;99.90;;;;;;5049355;28;20045;-83
2023/03/08 11:19:28;;;;;;;5.75;1.95;;;4.40;99.90;;;;;;5050046;28;20040;-84
2023/03/08 11:22:06;;;;;;;6.97;2.40;;;4.40;99.90;;;;;;5031825;28;20052;-83
2023/03/08 11:24:51;;;;;;;7.80;2.28;;;4.50;99.90;;;;;;5050134;28;20396;-84
2023/03/08 11:27:45;;;;;;;5.45;2.08;;;4.50;99.90;;;;;;5049380;28;20078;-84
2023/03/08 11:30:18;;;;;;;3.70;1.10;;;4.50;99.90;;;;;;5048484;28;20056;-83
2023/03/08 11:32:56;;;;;;;6.00;1.10;;;4.50;99.90;;;;;;5050105;28;20053;-83
2023/03/08 11:35:44;;;;;;;5.05;1.35;;;4.50;99.90;;;;;;5032010;28;20053;-83
2023/03/08 11:38:23;;;;;;;1.73;0.65;;;4.60;99.90;;;;;;5049764;28;20052;-83
2023/03/08 11:40:55;;;;;;;3.20;0.93;;;4.70;99.90;;;;;;5032911;28;20051;-83
2023/03/08 11:43:26;;;;;;;3.15;1.10;;;5.10;99.90;;;;;;5032363;28;20048;-83
2023/03/08 11:46:10;;;;;;;5.97;1.40;;;4.80;99.90;;;;;;5032468;28;20059;-83
2023/03/08 11:48:41;;;;;;;6.47;1.65;;;4.90;99.90;;;;;;5032724;28;20040;-83
2023/03/08 11:51:24;;;;;;;6.30;1.67;;;4.90;99.90;;;;;;5031416;28;20480;-84
2023/03/08 11:53:52;;;;;;;5.35;1.17;;;4.90;99.90;;;;;;5033061;28;20059;-83
2023/03/08 11:56:33;;;;;;;4.93;1.30;;;5.00;99.90;;;;;;5033064;28;20090;-83
2023/03/08 11:59:18;;;;;;;4.35;1.38;;;5.00;99.90;;;;;;5049670;28;20143;-83
2023/03/08 12:02:01;;;;;;;3.95;1.55;;;5.00;99.90;;;;;;5032141;28;20102;-83
2023/03/08 12:04:35;;;;;;;2.47;0.90;;;5.00;99.90;;;;;;5032093;28;20132;-83
2023/03/08 12:07:09;;;;;;;5.95;1.30;;;5.00;99.90;;;;;;5048335;28;20056;-83
2023/03/08 12:09:51;;;;;;;6.60;1.35;;;5.00;99.90;;;;;;5048808;28;20047;-83
2023/03/08 12:12:31;;;;;;;6.45;1.20;;;5.00;99.90;;;;;;5031861;28;20480;-86
2023/03/08 12:15:13;;;;;;;3.47;1.20;;;5.10;99.90;;;;;;5036053;28;20040;-83
2023/03/08 12:17:49;;;;;;;3.20;1.00;;;5.10;99.90;;;;;;5032485;28;20040;-84
2023/03/08 12:20:18;;;;;;;3.88;1.20;;;5.20;99.90;;;;;;5049218;28;20283;-83
2023/03/08 12:22:48;;;;;;;4.18;1.38;;;5.20;99.90;;;;;;5032901;28;20369;-83
2023/03/08 12:25:33;;;;;;;6.60;1.10;;;5.20;99.90;;;;;;5032390;28;20052;-84
2023/03/08 12:28:12;;;;;;;3.63;0.80;;;5.20;99.90;;;;;;5044881;28;20044;-83
2023/03/08 12:30:37;;;;;;;6.90;1.33;;;5.30;99.90;;;;;;5052698;28;20040;-83
2023/03/08 12:33:05;;;;;;;3.55;0.82;;;5.30;99.90;;;;;;5052496;28;20169;-83
2023/03/08 12:35:34;;;;;;;2.70;0.90;;;5.30;99.90;;;;;;5052179;28;20043;-84
2023/03/08 12:38:23;;;;;;;6.75;0.82;;;5.40;99.90;;;;;;5055089;28;20055;-84
2023/03/08 12:40:51;;;;;;;5.18;0.93;;;5.40;99.90;;;;;;5071928;28;20052;-83
2023/03/08 12:43:18;;;;;;;4.00;0.80;;;5.50;99.90;;;;;;5072775;28;20052;-83
2023/03/08 12:45:46;;;;;;;6.10;1.02;;;6.00;99.90;;;;;;5055420;28;20093;-83
2023/03/08 12:48:13;;;;;;;3.97;1.50;;;5.40;99.90;;;;;;5072732;28;20052;-84
2023/03/08 12:50:44;;;;;;;4.07;0.90;;;5.40;99.90;;;;;;5072739;28;20090;-86
2023/03/08 12:53:30;;;;;;;5.53;0.90;;;5.50;99.90;;;;;;5056349;28;20054;-85